ENFL/FRO METAR and TAF weather

Enter ICAO airport designator
Station Type Date Time Source
ENFL METAR 2019/08/22 09:50 UTC NOAA

ENFL 220950Z 12014KT 9999 -SHRA SCT025 BKN035 12/08 Q1011


Station Type Date Time Source
ENFL Decoded METAR 2019/08/22 09:50 UTC NOAA

Station name not available
Aug 22, 2019 - 05:50 AM EDT / 2019.08.22 0950 UTC
Wind: from the ESE (120 degrees) at 16 MPH (14 KT):0
Visibility: greater than 7 mile(s):0
Sky conditions: mostly cloudy
Weather: light rain showers
Temperature: 53 F (12 C)
Dew Point: 46 F (8 C)
Relative Humidity: 76%
Pressure (altimeter): 29.85 in. Hg (1011 hPa)
ob: ENFL 220950Z 12014KT 9999 -SHRA SCT025 BKN035 12/08 Q1011
cycle: 10

Station Type Date Time Source
ENFL TAF 2010/02/05 07:50 UTC NOAA

METAR ENFL 050750Z 16019KT 140V200 9999 FEW015 SCT030 BKN055 03/M03 Q1011

Example: see airport list